Time;durP1;ratioP1;P1;durP2;ratioP2;P2;SDS_P1;SDS_P2;PMS_P1;PMS_P2;Temp;Humidity;BMP_temperature;BMP_pressure;BME280_temperature;BME280_humidity;BME280_pressure;Samples;Min_cycle;Max_cycle;Signal;HPM_P1;HPM_P2
2024/03/09 00:01:55;;;;;;;32.40;23.77;;;;;;;5.69;100.00;100391.69;5062495;28;20052;-72
2024/03/09 00:04:43;;;;;;;32.78;24.98;;;;;;;5.69;100.00;100388.97;5109594;28;20039;-73
2024/03/09 00:07:32;;;;;;;34.80;25.30;;;;;;;5.67;100.00;100382.19;5113275;28;20100;-73
2024/03/09 00:10:22;;;;;;;36.83;25.85;;;;;;;5.60;100.00;100373.41;5106162;28;20094;-73
2024/03/09 00:13:10;;;;;;;31.00;23.42;;;;;;;5.53;100.00;100382.53;5093127;28;20048;-72
2024/03/09 00:15:59;;;;;;;32.90;24.52;;;;;;;5.48;100.00;100379.75;5127294;28;20044;-72
2024/03/09 00:18:48;;;;;;;32.90;24.13;;;;;;;5.52;100.00;100382.75;5084300;28;20128;-72
2024/03/09 00:21:36;;;;;;;33.63;24.20;;;;;;;5.51;100.00;100379.25;5089076;28;20048;-72
2024/03/09 00:24:24;;;;;;;36.42;24.88;;;;;;;5.54;100.00;100367.94;5094839;28;20051;-71
2024/03/09 00:27:14;;;;;;;34.55;24.85;;;;;;;5.54;100.00;100365.22;5078155;28;20523;-72
2024/03/09 00:30:06;;;;;;;35.35;26.50;;;;;;;5.51;100.00;100359.50;5042589;28;20537;-72
2024/03/09 00:32:55;;;;;;;36.42;25.20;;;;;;;5.51;100.00;100356.81;5070225;28;20051;-72
2024/03/09 00:35:44;;;;;;;32.10;23.92;;;;;;;5.54;100.00;100362.53;5068147;28;20052;-72
2024/03/09 00:38:34;;;;;;;34.92;25.10;;;;;;;5.55;100.00;100352.53;5062167;28;20127;-72
2024/03/09 00:41:22;;;;;;;29.45;22.60;;;;;;;5.54;100.00;100351.72;5065601;28;20523;-72
2024/03/09 00:44:10;;;;;;;35.10;26.08;;;;;;;5.53;100.00;100355.50;5090169;28;20133;-72
2024/03/09 00:47:00;;;;;;;35.95;23.92;;;;;;;5.48;100.00;100385.16;5091999;28;20044;-72
2024/03/09 00:49:48;;;;;;;33.83;25.20;;;;;;;5.53;100.00;100363.59;5074044;28;20051;-72
2024/03/09 00:52:37;;;;;;;34.10;24.20;;;;;;;5.54;100.00;100361.72;5110905;28;20052;-71
2024/03/09 00:55:25;;;;;;;32.78;25.63;;;;;;;5.50;100.00;100364.06;5095240;28;20535;-71
2024/03/09 00:58:15;;;;;;;38.53;26.30;;;;;;;5.46;100.00;100364.81;5096134;28;20487;-73
2024/03/09 01:01:04;;;;;;;34.47;24.75;;;;;;;5.48;100.00;100363.53;5080792;28;20096;-72
2024/03/09 01:03:55;;;;;;;32.60;25.02;;;;;;;5.50;100.00;100364.06;5094229;28;20381;-72
2024/03/09 01:06:43;;;;;;;34.45;25.08;;;;;;;5.46;100.00;100354.00;5113527;27;20035;-71
2024/03/09 01:09:31;;;;;;;32.90;24.90;;;;;;;5.40;100.00;100355.00;5101242;28;20130;-71
2024/03/09 01:12:20;;;;;;;36.65;25.80;;;;;;;5.33;100.00;100355.16;5109558;28;20055;-72
2024/03/09 01:15:11;;;;;;;33.55;25.42;;;;;;;5.32;100.00;100348.13;5090202;28;20044;-72
2024/03/09 01:17:59;;;;;;;35.72;25.08;;;;;;;5.27;100.00;100348.03;5075810;28;20043;-72
2024/03/09 01:20:47;;;;;;;34.03;24.08;;;;;;;5.24;100.00;100341.25;5094942;28;20050;-72
2024/03/09 01:23:35;;;;;;;35.22;26.48;;;;;;;5.22;100.00;100339.84;5109679;28;20048;-72
2024/03/09 01:26:24;;;;;;;34.60;25.15;;;;;;;5.22;100.00;100340.66;5095640;28;20043;-71
2024/03/09 01:29:12;;;;;;;33.55;24.83;;;;;;;5.22;100.00;100331.72;5109718;28;20155;-72
2024/03/09 01:32:04;;;;;;;33.83;24.75;;;;;;;5.24;100.00;100325.03;5095410;28;20043;-72
2024/03/09 01:34:53;;;;;;;33.88;26.02;;;;;;;5.20;100.00;100323.06;5107619;28;20098;-72
2024/03/09 01:37:41;;;;;;;33.65;24.65;;;;;;;5.13;100.00;100323.22;5081272;28;20043;-71
2024/03/09 01:40:31;;;;;;;37.92;25.33;;;;;;;5.05;100.00;100310.09;5062182;28;20071;-72
2024/03/09 01:43:20;;;;;;;39.25;25.92;;;;;;;5.04;100.00;100319.28;5075244;28;20502;-72
2024/03/09 01:46:10;;;;;;;32.40;24.75;;;;;;;5.04;100.00;100317.41;5085895;28;20048;-72
2024/03/09 01:48:58;;;;;;;32.58;23.70;;;;;;;5.03;100.00;100312.25;5115037;28;20166;-72
2024/03/09 01:51:47;;;;;;;35.30;25.40;;;;;;;5.05;100.00;100308.25;5101445;28;20121;-72
2024/03/09 01:54:40;;;;;;;37.42;26.33;;;;;;;5.07;100.00;100299.88;5112529;28;20499;-72
2024/03/09 01:57:29;;;;;;;32.38;24.15;;;;;;;5.03;100.00;100299.56;5047764;28;20048;-72
2024/03/09 02:00:20;;;;;;;34.33;23.73;;;;;;;5.06;100.00;100296.38;5103878;28;20044;-72
2024/03/09 02:03:12;;;;;;;33.25;24.52;;;;;;;5.04;100.00;100292.28;5081352;28;20050;-72
2024/03/09 02:06:00;;;;;;;33.45;24.35;;;;;;;5.03;100.00;100296.88;5108578;28;20180;-72
2024/03/09 02:08:49;;;;;;;31.48;23.67;;;;;;;5.02;100.00;100287.13;5096841;28;20052;-73
2024/03/09 02:11:42;;;;;;;39.13;24.58;;;;;;;4.97;100.00;100284.34;5100700;28;20129;-72
2024/03/09 02:14:33;;;;;;;33.63;24.55;;;;;;;4.99;100.00;100287.63;5103767;28;20043;-73
2024/03/09 02:17:22;;;;;;;37.03;26.80;;;;;;;4.94;100.00;100282.13;5068386;28;20048;-73
2024/03/09 02:20:11;;;;;;;34.47;25.00;;;;;;;4.89;100.00;100280.16;5081616;28;20052;-73
2024/03/09 02:23:00;;;;;;;36.95;25.75;;;;;;;4.91;100.00;100277.22;5114060;28;20052;-73
2024/03/09 02:25:48;;;;;;;32.15;24.40;;;;;;;4.92;100.00;100265.34;5081798;28;20044;-73
2024/03/09 02:28:37;;;;;;;37.10;25.35;;;;;;;4.94;100.00;100263.25;5075021;28;20051;-74
2024/03/09 02:31:25;;;;;;;31.67;23.42;;;;;;;4.97;100.00;100261.94;5071423;28;20051;-73
2024/03/09 02:34:13;;;;;;;33.30;24.05;;;;;;;4.92;100.00;100257.25;5115473;28;20054;-73
2024/03/09 02:37:02;;;;;;;34.20;23.33;;;;;;;4.91;100.00;100261.03;5094226;28;20503;-72
2024/03/09 02:39:51;;;;;;;32.47;24.80;;;;;;;4.93;100.00;100253.50;5091847;28;20522;-71
2024/03/09 02:43:03;;;;;;;33.30;24.23;;;;;;;4.92;100.00;100259.97;5090969;28;20139;-72
2024/03/09 02:45:49;;;;;;;32.90;23.35;;;;;;;4.88;100.00;100258.81;5084151;28;20043;-72
2024/03/09 02:48:37;;;;;;;33.08;24.20;;;;;;;4.89;100.00;100247.78;5093895;28;20059;-71
2024/03/09 02:51:26;;;;;;;36.95;24.67;;;;;;;4.97;100.00;100254.63;5094763;28;20039;-72
2024/03/09 02:54:15;;;;;;;31.83;22.88;;;;;;;5.01;100.00;100247.69;5089536;28;20151;-71
2024/03/09 02:57:06;;;;;;;31.40;24.05;;;;;;;5.00;100.00;100245.22;5078354;28;20127;-72
2024/03/09 02:59:54;;;;;;;35.13;24.50;;;;;;;4.95;100.00;100240.56;5112293;28;20055;-71
2024/03/09 03:05:52;;;;;;;31.33;23.40;;;;;;;4.94;100.00;100238.13;5101084;28;20103;-72
2024/03/09 03:08:40;;;;;;;31.15;23.17;;;;;;;4.95;100.00;100235.16;5112934;28;20487;-72
2024/03/09 03:11:28;;;;;;;30.90;23.52;;;;;;;4.99;100.00;100232.81;5112735;28;20172;-72
2024/03/09 03:14:16;;;;;;;38.28;25.02;;;;;;;5.00;100.00;100232.53;5099921;28;20127;-72
2024/03/09 03:17:06;;;;;;;35.95;24.08;;;;;;;4.95;100.00;100234.34;5085253;28;20429;-71
2024/03/09 03:19:55;;;;;;;35.03;23.70;;;;;;;4.94;100.00;100230.84;5097954;28;20051;-72
2024/03/09 03:22:47;;;;;;;37.88;25.35;;;;;;;4.92;100.00;100230.25;5094097;28;20076;-72
2024/03/09 03:25:35;;;;;;;30.67;23.10;;;;;;;4.91;100.00;100228.66;5098627;28;20047;-71
2024/03/09 03:28:24;;;;;;;32.90;24.45;;;;;;;4.91;100.00;100229.47;5084633;28;20526;-72
2024/03/09 03:31:13;;;;;;;32.67;23.27;;;;;;;4.95;100.00;100226.25;5110002;28;20503;-72
2024/03/09 03:34:01;;;;;;;35.25;24.63;;;;;;;4.92;100.00;100224.88;5112334;27;20092;-72
2024/03/09 03:36:49;;;;;;;32.22;23.35;;;;;;;4.83;100.00;100220.94;5118886;27;20127;-72
2024/03/09 03:39:38;;;;;;;34.08;24.02;;;;;;;4.80;100.00;100227.63;5091774;27;20100;-73
2024/03/09 03:42:26;;;;;;;34.78;24.02;;;;;;;4.81;100.00;100226.59;5085643;28;20044;-72
2024/03/09 03:45:15;;;;;;;33.40;23.50;;;;;;;4.81;100.00;100225.75;5077317;28;20134;-72
2024/03/09 03:48:04;;;;;;;32.00;23.48;;;;;;;4.78;100.00;100220.84;5117087;27;20055;-72
2024/03/09 03:50:53;;;;;;;33.42;23.45;;;;;;;4.83;100.00;100210.13;5107645;28;20050;-72
2024/03/09 03:53:41;;;;;;;30.58;21.55;;;;;;;4.86;100.00;100207.78;5109056;28;20043;-72
2024/03/09 03:56:30;;;;;;;31.23;22.92;;;;;;;4.85;100.00;100203.44;5113124;27;20070;-72
2024/03/09 03:59:18;;;;;;;30.75;21.45;;;;;;;4.86;100.00;100199.69;5097307;28;20120;-73
2024/03/09 04:02:07;;;;;;;33.35;23.58;;;;;;;4.84;100.00;100201.00;5097529;28;20059;-72
2024/03/09 04:04:56;;;;;;;33.67;24.23;;;;;;;4.83;100.00;100199.34;5112454;28;20051;-72
2024/03/09 04:07:44;;;;;;;31.67;23.75;;;;;;;4.78;100.00;100202.78;5091224;28;20123;-72
2024/03/09 04:10:33;;;;;;;32.70;23.00;;;;;;;4.75;100.00;100202.47;5077335;28;20059;-72
2024/03/09 04:13:22;;;;;;;32.55;22.23;;;;;;;4.76;100.00;100198.69;5079489;28;20040;-72
2024/03/09 04:16:11;;;;;;;35.53;23.92;;;;;;;4.79;100.00;100195.53;5081434;28;20097;-72
2024/03/09 04:18:59;;;;;;;31.60;22.45;;;;;;;4.80;100.00;100200.66;5077995;28;20044;-72
2024/03/09 04:21:47;;;;;;;32.78;23.58;;;;;;;4.78;100.00;100191.16;5077275;28;20094;-72
2024/03/09 04:24:35;;;;;;;29.13;21.77;;;;;;;4.80;100.00;100194.44;5072568;28;20078;-71
2024/03/09 04:27:23;;;;;;;30.13;22.33;;;;;;;4.83;100.00;100199.34;5125711;28;20142;-72
2024/03/09 04:30:12;;;;;;;35.88;23.52;;;;;;;4.84;100.00;100190.19;5114210;28;20051;-72
2024/03/09 04:33:04;;;;;;;32.70;23.60;;;;;;;4.78;100.00;100191.16;5118534;28;20040;-72
2024/03/09 04:35:53;;;;;;;32.15;23.27;;;;;;;4.75;100.00;100183.56;5102988;28;20469;-72
2024/03/09 04:38:43;;;;;;;31.25;23.88;;;;;;;4.72;100.00;100182.19;5112066;28;20063;-72
2024/03/09 04:41:32;;;;;;;31.33;23.92;;;;;;;4.73;100.00;100183.00;5078115;28;20115;-72
2024/03/09 04:44:23;;;;;;;30.00;22.13;;;;;;;4.69;100.00;100188.88;5117328;28;20048;-71
2024/03/09 04:47:20;;;;;;;31.58;22.20;;;;;;;4.74;100.00;100181.91;5080704;28;20063;-71
2024/03/09 04:50:10;;;;;;;30.30;21.98;;;;;;;4.77;100.00;100181.44;5093274;28;20308;-73
2024/03/09 04:52:58;;;;;;;34.63;23.52;;;;;;;4.75;100.00;100178.16;5092125;28;20090;-71
2024/03/09 04:55:53;;;;;;;37.60;22.77;;;;;;;4.73;100.00;100180.28;5082125;28;20500;-72
2024/03/09 04:58:43;;;;;;;31.38;22.52;;;;;;;4.66;100.00;100172.34;5089193;28;20063;-72
2024/03/09 05:01:32;;;;;;;30.40;22.23;;;;;;;4.65;100.00;100171.53;5074785;28;20382;-72
2024/03/09 05:04:20;;;;;;;31.15;22.77;;;;;;;4.70;100.00;100162.72;5092032;28;20334;-71
2024/03/09 05:07:13;;;;;;;31.98;20.92;;;;;;;4.70;100.00;100163.53;5103644;28;20091;-72
2024/03/09 05:10:01;;;;;;;28.65;21.73;;;;;;;4.77;100.00;100162.56;5109870;27;20077;-72
2024/03/09 05:12:53;;;;;;;29.17;21.65;;;;;;;4.80;100.00;100162.88;5115691;27;20057;-71
2024/03/09 05:15:42;;;;;;;29.58;21.63;;;;;;;4.77;100.00;100165.25;5131322;27;20043;-72
2024/03/09 05:18:31;;;;;;;29.48;21.60;;;;;;;4.73;100.00;100156.00;5110309;28;20606;-72
2024/03/09 05:21:19;;;;;;;25.08;18.98;;;;;;;4.72;100.00;100157.09;5092694;28;20052;-72
2024/03/09 05:24:07;;;;;;;31.27;21.13;;;;;;;4.80;100.00;100148.56;5049128;28;20110;-71
2024/03/09 05:26:56;;;;;;;29.13;21.15;;;;;;;4.80;100.00;100145.84;5090349;28;20044;-73
2024/03/09 05:29:45;;;;;;;27.45;20.58;;;;;;;4.81;100.00;100144.78;5076345;28;20456;-72
2024/03/09 05:32:34;;;;;;;27.20;19.65;;;;;;;4.77;100.00;100139.06;5083035;28;20134;-72
2024/03/09 05:35:26;;;;;;;29.20;20.30;;;;;;;4.78;100.00;100132.59;5110520;28;20104;-73
2024/03/09 05:38:14;;;;;;;27.52;20.42;;;;;;;4.80;100.00;100127.78;5083952;28;20047;-73
2024/03/09 05:41:02;;;;;;;28.23;19.38;;;;;;;4.79;100.00;100126.16;5087973;28;20043;-73
2024/03/09 05:43:52;;;;;;;29.05;21.02;;;;;;;4.82;100.00;100128.34;5102456;27;20095;-67
2024/03/09 05:46:40;;;;;;;29.92;21.65;;;;;;;4.72;100.00;100122.00;5117293;28;20507;-71
2024/03/09 05:49:28;;;;;;;30.13;21.92;;;;;;;4.65;100.00;100112.19;5095437;28;20407;-72
2024/03/09 05:52:17;;;;;;;29.85;22.02;;;;;;;4.56;100.00;100116.34;5107966;28;20039;-73
2024/03/09 05:55:06;;;;;;;30.20;21.20;;;;;;;4.57;100.00;100120.69;5096259;28;20051;-73
2024/03/09 05:57:55;;;;;;;28.05;19.90;;;;;;;4.61;100.00;100118.31;5083090;28;20051;-72
2024/03/09 06:00:44;;;;;;;27.08;19.73;;;;;;;4.64;100.00;100128.59;5097054;28;20464;-72
2024/03/09 06:03:32;;;;;;;26.33;18.00;;;;;;;4.69;100.00;100121.44;5094597;28;20075;-70
2024/03/09 06:06:20;;;;;;;27.92;20.08;;;;;;;4.70;100.00;100120.34;5096296;28;20574;-72
2024/03/09 06:09:09;;;;;;;28.17;20.63;;;;;;;4.70;100.00;100125.75;5081601;28;20051;-70
2024/03/09 06:11:57;;;;;;;24.25;17.48;;;;;;;4.74;100.00;100114.44;5093626;28;20784;-70
2024/03/09 06:14:45;;;;;;;28.92;20.52;;;;;;;4.78;100.00;100112.91;5096091;28;20094;-72
2024/03/09 06:17:33;;;;;;;27.02;18.58;;;;;;;4.74;100.00;100107.19;5110553;28;20050;-73
2024/03/09 06:20:21;;;;;;;28.77;18.90;;;;;;;4.83;100.00;100126.47;5096182;28;20050;-70
2024/03/09 06:23:09;;;;;;;26.90;19.38;;;;;;;4.85;100.00;100132.44;5095882;28;20094;-73
2024/03/09 06:25:58;;;;;;;27.23;20.52;;;;;;;4.83;100.00;100126.47;5084785;28;20056;-71
2024/03/09 06:28:46;;;;;;;26.73;19.30;;;;;;;4.76;100.00;100131.22;5096733;28;20055;-71
2024/03/09 06:31:34;;;;;;;26.50;18.48;;;;;;;4.76;100.00;100134.72;5098777;28;20047;-72
2024/03/09 06:34:23;;;;;;;29.65;21.10;;;;;;;4.72;100.00;100135.50;5104531;28;20067;-72
2024/03/09 06:37:11;;;;;;;30.42;20.55;;;;;;;4.65;100.00;100130.25;5118660;28;20181;-73
2024/03/09 06:40:00;;;;;;;26.00;18.63;;;;;;;4.67;100.00;100133.53;5114306;28;20054;-72
2024/03/09 06:42:50;;;;;;;29.98;20.10;;;;;;;4.65;100.00;100144.56;5099658;28;20071;-71
2024/03/09 06:45:45;;;;;;;28.02;19.58;;;;;;;4.69;100.00;100136.81;5072934;28;20055;-70
2024/03/09 06:48:33;;;;;;;30.48;20.20;;;;;;;4.70;100.00;100135.72;5080126;28;20059;-71
2024/03/09 06:51:22;;;;;;;25.15;19.20;;;;;;;4.67;100.00;100137.03;5081244;28;20032;-72
2024/03/09 06:54:11;;;;;;;25.17;18.45;;;;;;;4.69;100.00;100134.09;5095992;28;20407;-71
2024/03/09 06:57:00;;;;;;;26.63;19.08;;;;;;;4.68;100.00;100133.25;5099475;28;20058;-71
2024/03/09 06:59:48;;;;;;;27.70;18.23;;;;;;;4.75;100.00;100135.00;5083820;28;20046;-72
2024/03/09 07:02:36;;;;;;;26.20;18.60;;;;;;;4.76;100.00;100132.03;5097683;28;20495;-71
2024/03/09 07:05:27;;;;;;;27.65;19.02;;;;;;;4.79;100.00;100133.44;5098086;28;20066;-72
2024/03/09 07:08:16;;;;;;;25.98;19.98;;;;;;;4.81;100.00;100137.53;5090334;28;20040;-71
2024/03/09 07:11:05;;;;;;;29.95;20.25;;;;;;;4.78;100.00;100137.19;5102253;28;20039;-71
2024/03/09 07:13:56;;;;;;;27.17;20.58;;;;;;;4.75;100.00;100137.69;5097334;28;20047;-71
2024/03/09 07:16:47;;;;;;;30.92;20.25;;;;;;;4.74;100.00;100141.44;5099762;28;20126;-71
2024/03/09 07:19:36;;;;;;;29.13;19.88;;;;;;;4.77;100.00;100146.38;5096270;28;20123;-72
2024/03/09 07:22:25;;;;;;;27.83;20.58;;;;;;;4.83;100.00;100150.75;5094647;28;20100;-71
2024/03/09 07:25:14;;;;;;;27.33;20.00;;;;;;;4.90;100.00;100146.00;5097153;28;20048;-71
2024/03/09 07:28:02;;;;;;;26.85;19.50;;;;;;;4.90;100.00;100143.31;5095968;28;20056;-71
2024/03/09 07:30:51;;;;;;;29.17;19.23;;;;;;;4.90;100.00;100140.63;5096267;28;20511;-70
2024/03/09 07:33:42;;;;;;;24.88;18.77;;;;;;;4.94;100.00;100146.34;5092389;28;20066;-71
2024/03/09 07:36:30;;;;;;;26.88;20.10;;;;;;;4.97;100.00;100143.97;5080292;28;20048;-70
2024/03/09 07:39:18;;;;;;;29.25;21.65;;;;;;;5.03;100.00;100139.47;5077933;28;20074;-70
2024/03/09 07:42:09;;;;;;;28.83;19.42;;;;;;;5.05;100.00;100135.47;5111371;28;20100;-70
2024/03/09 07:44:57;;;;;;;27.33;18.92;;;;;;;5.12;100.00;100141.50;5110937;28;20533;-70
2024/03/09 07:47:46;;;;;;;28.60;18.67;;;;;;;5.16;100.00;100138.28;5083056;28;20507;-70
2024/03/09 07:50:34;;;;;;;26.80;18.02;;;;;;;5.19;100.00;100137.78;5096733;28;20051;-70
2024/03/09 07:53:22;;;;;;;26.02;18.50;;;;;;;5.27;100.00;100137.38;5106845;28;20123;-70
2024/03/09 07:56:10;;;;;;;25.63;17.95;;;;;;;5.38;100.00;100141.00;5096015;28;20704;-70
2024/03/09 07:59:01;;;;;;;26.05;18.05;;;;;;;5.45;100.00;100136.25;5097981;28;20500;-71
2024/03/09 08:01:50;;;;;;;27.38;18.35;;;;;;;5.48;100.00;100135.72;5084099;27;20058;-70
2024/03/09 08:04:39;;;;;;;24.63;17.17;;;;;;;5.52;100.00;100129.56;5113110;28;20063;-70
2024/03/09 08:07:27;;;;;;;23.83;16.85;;;;;;;5.57;100.00;100107.19;5083489;28;20051;-70
2024/03/09 08:10:19;;;;;;;24.60;16.77;;;;;;;5.62;100.00;100114.56;5097477;28;20379;-71
2024/03/09 08:13:10;;;;;;;24.45;17.38;;;;;;;5.68;100.00;100124.38;5095146;27;20051;-70
2024/03/09 08:15:59;;;;;;;23.40;16.38;;;;;;;5.74;100.00;100132.25;5082761;28;20424;-70
2024/03/09 08:18:47;;;;;;;25.65;17.50;;;;;;;5.75;100.00;100112.28;5070433;28;20052;-70
2024/03/09 08:21:35;;;;;;;22.17;16.20;;;;;;;5.80;100.00;100130.44;5092033;28;20463;-69
2024/03/09 08:24:23;;;;;;;23.23;16.73;;;;;;;5.84;100.00;100117.22;5076810;28;20044;-70
2024/03/09 08:27:12;;;;;;;27.08;17.33;;;;;;;5.86;100.00;100126.72;5080984;28;20047;-70
2024/03/09 08:30:03;;;;;;;22.08;15.65;;;;;;;5.85;100.00;100117.00;5089719;28;20044;-70
2024/03/09 08:32:54;;;;;;;22.02;15.52;;;;;;;5.85;100.00;100129.69;5064058;28;20583;-70
2024/03/09 08:35:44;;;;;;;22.10;15.70;;;;;;;5.88;100.00;100123.78;5091267;28;20055;-71
2024/03/09 08:38:32;;;;;;;22.50;16.35;;;;;;;5.93;100.00;100113.81;5091434;28;20040;-70
2024/03/09 08:41:22;;;;;;;24.60;15.77;;;;;;;5.97;100.00;100114.16;5092176;28;20131;-70
2024/03/09 08:44:13;;;;;;;20.77;15.43;;;;;;;6.04;100.00;100101.25;5106685;28;20040;-70
2024/03/09 08:47:03;;;;;;;22.23;16.27;;;;;;;6.09;100.00;100098.59;5086451;27;20051;-70
2024/03/09 08:49:51;;;;;;;21.10;15.52;;;;;;;6.21;100.00;100092.22;5095980;28;20055;-70
2024/03/09 08:52:40;;;;;;;24.08;16.55;;;;;;;6.29;100.00;100094.44;5128428;28;20061;-68
2024/03/09 08:55:28;;;;;;;22.33;16.30;;;;;;;6.42;100.00;100095.91;5099605;28;20056;-69
2024/03/09 08:58:17;;;;;;;21.85;15.68;;;;;;;6.51;100.00;100091.66;5091301;28;20097;-70
2024/03/09 09:01:05;;;;;;;23.52;15.90;;;;;;;6.56;100.00;100087.06;5119422;28;20051;-69
2024/03/09 09:03:55;;;;;;;20.35;13.95;;;;;;;6.60;100.00;100093.63;5123834;28;20081;-69
2024/03/09 09:06:43;;;;;;;18.55;13.43;;;;;;;6.63;100.00;100092.28;5070939;28;20052;-70
2024/03/09 09:09:31;;;;;;;22.13;13.77;;;;;;;6.72;100.00;100085.31;5085596;28;20044;-70
2024/03/09 09:12:19;;;;;;;20.13;13.38;;;;;;;6.73;100.00;100078.81;5085628;28;20505;-70
2024/03/09 09:15:12;;;;;;;20.85;13.55;;;;;;;6.73;100.00;100089.63;5097541;28;20513;-70
2024/03/09 09:18:00;;;;;;;22.02;13.60;;;;;;;6.71;100.00;100088.25;5064551;28;20052;-70
2024/03/09 09:20:49;;;;;;;20.52;13.75;;;;;;;6.74;100.00;100085.06;5075502;28;20244;-71
2024/03/09 09:23:38;;;;;;;18.15;13.45;;;;;;;6.74;100.00;100088.56;5111632;28;20032;-71
2024/03/09 09:26:28;;;;;;;22.98;14.50;;;;;;;6.80;100.00;100087.50;5089130;27;20049;-70
2024/03/09 09:29:16;;;;;;;19.83;13.70;;;;;;;6.89;100.00;100084.34;5141863;27;20076;-71
2024/03/09 09:32:05;;;;;;;20.85;14.30;;;;;;;7.07;100.00;100086.63;5108658;27;20070;-69
2024/03/09 09:34:54;;;;;;;22.67;14.00;;;;;;;7.14;100.00;100079.03;5123362;28;20046;-69
2024/03/09 09:37:42;;;;;;;20.60;13.38;;;;;;;7.15;100.00;100083.38;5103021;28;20047;-70
2024/03/09 09:40:32;;;;;;;19.02;14.40;;;;;;;7.18;100.00;100082.84;5037854;28;20048;-70
2024/03/09 09:43:20;;;;;;;19.67;13.20;;;;;;;7.21;100.00;100082.31;5078904;28;20101;-71
2024/03/09 09:46:08;;;;;;;21.80;14.20;;;;;;;7.20;100.00;100072.56;5077212;28;20044;-71
2024/03/09 09:48:58;;;;;;;19.83;13.45;;;;;;;7.16;100.00;100066.03;5077409;28;20052;-70
2024/03/09 09:51:47;;;;;;;19.85;13.70;;;;;;;7.18;100.00;100061.19;5077473;28;20040;-70
2024/03/09 09:54:37;;;;;;;17.27;13.35;;;;;;;7.29;100.00;100055.81;5061906;28;20535;-71
2024/03/09 09:57:25;;;;;;;20.60;14.13;;;;;;;7.41;100.00;100051.81;5076573;28;20039;-70
2024/03/09 10:00:14;;;;;;;18.83;12.45;;;;;;;7.51;100.00;100048.31;5091568;28;20048;-70
2024/03/09 10:03:04;;;;;;;19.65;13.30;;;;;;;7.50;100.00;100049.38;5091809;28;20047;-72
2024/03/09 10:05:52;;;;;;;19.77;13.98;;;;;;;7.50;100.00;100049.38;5084581;28;20050;-72
2024/03/09 10:08:50;;;;;;;20.77;13.63;;;;;;;7.56;100.00;100040.19;5101608;28;20039;-72
2024/03/09 10:11:39;;;;;;;19.65;14.45;;;;;;;7.65;100.00;100027.75;5086302;28;20048;-71
2024/03/09 10:14:31;;;;;;;17.58;11.93;;;;;;;7.71;100.00;100030.47;5118154;28;20496;-72
2024/03/09 10:17:19;;;;;;;18.98;13.45;;;;;;;7.69;100.00;100028.00;5075146;28;20185;-71
2024/03/09 10:20:12;;;;;;;21.85;13.95;;;;;;;7.70;100.00;100035.06;5087698;28;20152;-71
2024/03/09 10:23:04;;;;;;;17.83;13.10;;;;;;;7.73;100.00;100029.09;5087263;27;20069;-71
2024/03/09 10:26:06;;;;;;;21.58;13.35;;;;;;;7.79;100.00;100030.75;5136963;27;20115;-74
2024/03/09 10:29:02;;;;;;;20.73;13.80;;;;;;;7.85;100.00;100037.00;5098757;28;20040;-71
2024/03/09 10:31:51;;;;;;;22.13;14.93;;;;;;;7.89;100.00;100035.38;5085161;28;20380;-71
2024/03/09 10:34:39;;;;;;;18.77;13.48;;;;;;;7.94;100.00;100034.53;5089869;28;20039;-70
2024/03/09 10:37:27;;;;;;;21.77;13.68;;;;;;;8.03;100.00;100022.06;5087443;28;20134;-71
2024/03/09 10:40:16;;;;;;;20.48;13.77;;;;;;;8.07;100.00;100017.75;5067784;28;20052;-70
2024/03/09 10:43:11;;;;;;;21.80;13.80;;;;;;;8.05;100.00;100018.00;5062549;28;20154;-70
2024/03/09 10:46:04;;;;;;;20.63;13.02;;;;;;;8.04;100.00;100029.94;5083643;28;20132;-70
2024/03/09 10:48:55;;;;;;;20.58;13.15;;;;;;;8.03;100.00;100022.91;5099733;28;20059;-70
2024/03/09 10:51:51;;;;;;;19.52;13.63;;;;;;;8.08;100.00;100020.19;5087110;28;20042;-72
2024/03/09 10:54:44;;;;;;;18.10;11.73;;;;;;;8.15;100.00;100019.09;5095203;28;20052;-71
2024/03/09 10:57:32;;;;;;;19.05;14.65;;;;;;;8.23;100.00;100015.84;5086306;28;20043;-72
2024/03/09 11:00:31;;;;;;;20.98;13.43;;;;;;;8.27;100.00;100017.75;5094352;28;20048;-72
2024/03/09 11:03:23;;;;;;;18.67;12.13;;;;;;;8.28;100.00;100007.72;5107010;27;20665;-72
2024/03/09 11:06:16;;;;;;;18.45;13.27;;;;;;;8.27;100.00;100008.78;5100548;28;20048;-72
2024/03/09 11:09:10;;;;;;;19.35;13.75;;;;;;;8.31;100.00;100007.97;5087098;28;20051;-73
2024/03/09 11:12:00;;;;;;;19.67;14.35;;;;;;;8.52;100.00;99997.94;5101800;27;20048;-72
2024/03/09 11:14:50;;;;;;;27.20;13.57;;;;;;;8.63;98.81;99998.69;5094472;28;20540;-71
2024/03/09 11:17:43;;;;;;;18.55;12.95;;;;;;;8.67;99.10;99993.56;5080576;28;20066;-72
2024/03/09 11:20:31;;;;;;;20.60;13.93;;;;;;;8.70;98.19;100001.13;5085887;28;20048;-72
2024/03/09 11:23:24;;;;;;;20.35;13.80;;;;;;;8.77;97.94;99998.94;5068546;28;20516;-72
2024/03/09 11:26:14;;;;;;;21.02;14.32;;;;;;;8.78;98.83;99992.44;5084827;28;20044;-72
2024/03/09 11:29:02;;;;;;;24.23;15.27;;;;;;;8.84;99.80;99994.03;5094622;28;20048;-72
2024/03/09 11:32:05;;;;;;;21.63;13.88;;;;;;;8.85;98.71;99987.53;5085776;28;20388;-73
2024/03/09 11:35:07;;;;;;;21.40;13.07;;;;;;;8.92;99.11;99985.31;5098382;28;20044;-73
2024/03/09 11:37:56;;;;;;;22.00;15.55;;;;;;;8.97;99.65;99987.19;5088022;28;20063;-71
2024/03/09 11:40:46;;;;;;;22.08;15.38;;;;;;;9.06;98.60;99980.09;5097794;28;20039;-72
2024/03/09 11:43:34;;;;;;;23.27;15.85;;;;;;;9.25;98.49;99974.84;5095730;28;20500;-72
2024/03/09 11:46:23;;;;;;;21.83;15.70;;;;;;;9.29;98.71;99966.94;5098005;28;20047;-72
2024/03/09 11:49:12;;;;;;;21.38;15.05;;;;;;;9.36;98.77;99953.88;5099891;28;20373;-73
2024/03/09 11:52:11;;;;;;;21.58;15.80;;;;;;;9.50;98.52;99957.56;5096775;28;20047;-69
2024/03/09 11:55:03;;;;;;;22.48;15.73;;;;;;;9.57;97.28;99957.25;5093152;28;20074;-72
2024/03/09 11:57:52;;;;;;;18.48;13.70;;;;;;;9.60;93.17;99949.34;5084337;28;20043;-72
2024/03/09 12:00:41;;;;;;;20.05;14.30;;;;;;;9.57;92.81;99935.47;5083738;28;20113;-72
2024/03/09 12:03:30;;;;;;;21.88;14.80;;;;;;;9.65;94.19;99943.06;5080830;28;20270;-73
2024/03/09 12:06:21;;;;;;;22.08;15.30;;;;;;;9.74;94.07;99941.34;5113759;28;20044;-71
2024/03/09 12:09:13;;;;;;;19.60;12.50;;;;;;;9.79;93.15;99944.03;5083932;28;20320;-71
2024/03/09 12:12:12;;;;;;;21.70;14.23;;;;;;;9.78;92.54;99953.28;5097619;28;20040;-69
2024/03/09 12:15:01;;;;;;;20.00;12.50;;;;;;;9.91;99.15;99940.94;5070713;28;20039;-70
2024/03/09 12:17:49;;;;;;;16.45;8.90;;;;;;;9.93;94.53;99938.75;5083348;28;20044;-71
2024/03/09 12:20:37;;;;;;;20.65;12.98;;;;;;;9.96;100.00;99934.66;5085154;28;20043;-71
2024/03/09 12:23:25;;;;;;;19.08;11.93;;;;;;;9.93;100.00;99935.19;5052047;28;20067;-70
2024/03/09 12:26:13;;;;;;;17.92;12.90;;;;;;;9.86;93.71;99934.72;5065392;28;20054;-73
2024/03/09 12:29:04;;;;;;;17.95;12.82;;;;;;;9.83;90.04;99933.38;5097922;28;20122;-72
2024/03/09 12:31:52;;;;;;;19.90;13.15;;;;;;;9.82;90.60;99929.84;5073560;28;20385;-74
2024/03/09 12:34:41;;;;;;;19.70;13.38;;;;;;;9.86;90.45;99927.38;5083956;28;20441;-73
2024/03/09 12:37:29;;;;;;;20.15;13.70;;;;;;;9.84;90.62;99928.75;5093438;28;20071;-73
2024/03/09 12:40:20;;;;;;;18.17;12.82;;;;;;;9.77;91.40;99918.22;5083885;28;20074;-74
2024/03/09 12:43:08;;;;;;;19.50;12.73;;;;;;;9.73;91.73;99912.50;5086730;28;20606;-74
2024/03/09 12:45:57;;;;;;;20.95;12.73;;;;;;;9.73;92.25;99919.88;5083816;28;20122;-74
2024/03/09 12:48:45;;;;;;;18.40;12.63;;;;;;;9.70;92.87;99907.66;5096124;28;20138;-73
2024/03/09 12:51:33;;;;;;;18.73;13.10;;;;;;;9.70;93.29;99909.56;5097675;28;20040;-74
2024/03/09 12:54:23;;;;;;;20.75;14.20;;;;;;;9.79;91.98;99900.50;5050237;28;20052;-75
2024/03/09 12:57:17;;;;;;;20.38;13.60;;;;;;;9.91;90.99;99902.03;5066023;28;20048;-74